createdAt,value
2022-11-02T00:01:04.547Z,90.09
2022-11-02T00:03:32.758Z,89.97
2022-11-02T00:06:01.047Z,89.85
2022-11-02T00:08:29.439Z,90.15
2022-11-02T00:10:57.778Z,90.18
2022-11-02T00:13:26.013Z,90.32
2022-11-02T00:15:55.186Z,90.25
2022-11-02T00:18:24.957Z,90.35
2022-11-02T00:20:53.234Z,90.31
2022-11-02T00:23:21.717Z,90.21
2022-11-02T00:25:51.208Z,90.42
2022-11-02T00:28:19.918Z,90.31
2022-11-02T00:30:48.246Z,90.41
2022-11-02T00:33:16.706Z,90.33
2022-11-02T00:35:46.718Z,90.48
2022-11-02T00:38:16.046Z,90.52
2022-11-02T00:40:45.977Z,90.29
2022-11-02T00:43:14.434Z,90.41
2022-11-02T00:45:43.106Z,90.28
2022-11-02T00:48:11.647Z,90.24
2022-11-02T00:50:40.830Z,90.08
2022-11-02T00:53:10.599Z,90.34
2022-11-02T00:55:44.759Z,90.20
2022-11-02T00:58:13.159Z,90.11
2022-11-02T01:00:41.516Z,90.25
2022-11-02T01:03:11.369Z,90.97
2022-11-02T01:05:39.661Z,90.17
2022-11-02T01:08:07.888Z,90.56
2022-11-02T01:10:37.599Z,90.38
2022-11-02T01:13:06.045Z,90.33
2022-11-02T01:15:34.186Z,90.51
2022-11-02T01:18:02.783Z,90.49
2022-11-02T01:20:31.667Z,90.49
2022-11-02T01:23:00.226Z,90.54
2022-11-02T01:25:28.559Z,90.42
2022-11-02T01:27:58.315Z,90.81
2022-11-02T01:30:26.738Z,90.63
2022-11-02T01:32:55.048Z,90.48
2022-11-02T01:35:23.501Z,90.72
2022-11-02T01:37:52.084Z,90.71
2022-11-02T01:40:20.479Z,90.80
2022-11-02T01:42:48.834Z,90.64
2022-11-02T01:45:18.765Z,90.50
2022-11-02T01:47:49.266Z,90.58
2022-11-02T01:50:21.085Z,90.57
2022-11-02T01:52:49.488Z,90.49
2022-11-02T01:55:21.069Z,90.50
2022-11-02T01:57:51.319Z,90.47
2022-11-02T02:00:21.547Z,90.32
2022-11-02T02:02:52.814Z,90.65
2022-11-02T02:05:22.564Z,90.58
2022-11-02T02:07:52.620Z,90.42
2022-11-02T02:10:21.098Z,90.45
2022-11-02T02:12:51.597Z,90.68
2022-11-02T02:15:25.634Z,90.74
2022-11-02T02:17:57.475Z,90.77
2022-11-02T02:20:34.734Z,90.61
2022-11-02T02:23:22.094Z,90.64
2022-11-02T02:26:02.876Z,90.90
2022-11-02T02:28:39.099Z,90.23
2022-11-02T02:31:11.848Z,90.51
2022-11-02T02:33:44.999Z,90.76
2022-11-02T02:36:16.796Z,90.86
2022-11-02T02:38:46.943Z,90.62
2022-11-02T02:41:17.418Z,90.22
2022-11-02T02:43:50.618Z,90.68
2022-11-02T02:46:20.958Z,90.07
2022-11-02T02:48:50.299Z,90.43
2022-11-02T02:51:21.119Z,89.99
2022-11-02T02:53:51.279Z,90.35
2022-11-02T02:56:24.785Z,90.36
2022-11-02T02:58:58.114Z,90.22
2022-11-02T03:01:29.815Z,90.14
2022-11-02T03:03:58.571Z,89.72
2022-11-02T03:06:29.032Z,89.74
2022-11-02T03:09:05.076Z,89.72
2022-11-02T03:11:34.879Z,89.88
2022-11-02T03:14:17.117Z,90.13
2022-11-02T03:16:56.382Z,90.29
2022-11-02T03:19:26.376Z,90.51
2022-11-02T03:22:00.526Z,90.15
2022-11-02T03:24:31.605Z,90.52
2022-11-02T03:27:06.697Z,90.39
2022-11-02T03:29:40.748Z,90.79
2022-11-02T03:32:12.581Z,90.52
2022-11-02T03:34:45.714Z,91.00
2022-11-02T03:37:17.378Z,90.58
2022-11-02T03:39:49.369Z,90.98
2022-11-02T03:42:20.254Z,90.69
2022-11-02T03:44:57.233Z,91.10
2022-11-02T03:47:31.142Z,91.04
2022-11-02T03:50:03.477Z,90.84
2022-11-02T03:52:33.096Z,91.34
2022-11-02T03:55:05.176Z,91.15
2022-11-02T03:57:40.549Z,91.39
2022-11-02T04:00:12.937Z,90.95
2022-11-02T04:02:48.595Z,90.98
2022-11-02T04:05:17.017Z,91.37
2022-11-02T04:07:59.486Z,91.38
2022-11-02T04:10:29.537Z,91.22
2022-11-02T04:13:07.813Z,91.37
2022-11-02T04:15:37.695Z,91.39
2022-11-02T04:18:16.047Z,91.63
2022-11-02T04:20:44.497Z,91.87
2022-11-02T04:23:21.737Z,91.60
2022-11-02T04:25:53.869Z,91.75
2022-11-02T04:28:42.884Z,91.80
2022-11-02T04:31:13.477Z,91.72
2022-11-02T04:33:42.131Z,91.91
2022-11-02T04:36:13.115Z,91.92
2022-11-02T04:38:41.758Z,92.23
2022-11-02T04:41:45.876Z,92.03
2022-11-02T04:44:28.018Z,92.07
2022-11-02T04:47:05.480Z,92.08
2022-11-02T04:49:36.225Z,91.70
2022-11-02T04:52:07.617Z,92.32
2022-11-02T04:54:38.107Z,92.20
2022-11-02T04:57:08.722Z,92.04
2022-11-02T04:59:37.935Z,92.25
2022-11-02T05:02:09.837Z,92.14
2022-11-02T05:04:39.559Z,92.07
2022-11-02T05:07:08.935Z,92.23
2022-11-02T05:09:42.724Z,92.15
2022-11-02T05:12:12.558Z,92.40
2022-11-02T05:14:41.776Z,92.10
2022-11-02T05:17:13.763Z,92.82
2022-11-02T05:19:42.246Z,92.43
2022-11-02T05:22:10.921Z,92.70
2022-11-02T05:24:39.947Z,92.56
2022-11-02T05:27:10.765Z,92.81
2022-11-02T05:29:40.377Z,92.56
2022-11-02T05:32:09.027Z,92.44
2022-11-02T05:34:38.660Z,92.72
2022-11-02T05:37:07.906Z,92.90
2022-11-02T05:39:37.593Z,92.49
2022-11-02T05:42:06.067Z,92.67
2022-11-02T05:44:34.298Z,92.54
2022-11-02T05:47:02.658Z,92.86
2022-11-02T05:49:31.069Z,92.98
2022-11-02T05:52:01.026Z,93.07
2022-11-02T05:54:29.548Z,93.03
2022-11-02T05:56:58.559Z,93.04
2022-11-02T05:59:26.998Z,93.03
2022-11-02T06:01:55.336Z,92.99
2022-11-02T06:04:23.675Z,93.31
2022-11-02T06:06:51.994Z,93.32
2022-11-02T06:09:21.696Z,93.38
2022-11-02T06:11:49.955Z,93.52
2022-11-02T06:14:18.295Z,93.40
2022-11-02T06:16:46.579Z,93.36
2022-11-02T06:21:48.640Z,93.52
2022-11-02T06:24:17.298Z,93.62
2022-11-02T06:26:47.269Z,93.52
2022-11-02T06:29:15.618Z,93.49
2022-11-02T06:31:43.778Z,93.48
2022-11-02T06:34:12.077Z,93.43
2022-11-02T06:36:40.294Z,93.26
2022-11-02T06:39:08.668Z,93.31
2022-11-02T06:41:37.278Z,93.31
2022-11-02T06:44:07.368Z,93.14
2022-11-02T06:46:35.705Z,92.90
2022-11-02T06:49:03.914Z,92.90
2022-11-02T06:51:32.246Z,92.92
2022-11-02T06:54:04.557Z,92.75
2022-11-02T06:56:37.381Z,92.57
2022-11-02T06:59:07.060Z,92.70
2022-11-02T07:01:35.607Z,92.45
2022-11-02T07:04:04.079Z,92.33
2022-11-02T07:06:32.301Z,92.31
2022-11-02T07:09:00.502Z,92.23
2022-11-02T07:11:29.275Z,92.22
2022-11-02T07:13:57.558Z,92.12
2022-11-02T07:16:27.343Z,92.01
2022-11-02T07:18:55.714Z,91.97
2022-11-02T07:21:23.967Z,92.20
2022-11-02T07:23:52.159Z,91.97
2022-11-02T07:26:20.425Z,91.74
2022-11-02T07:28:48.776Z,91.39
2022-11-02T07:31:17.028Z,91.12
2022-11-02T07:33:47.074Z,91.20
2022-11-02T07:36:15.416Z,90.82
2022-11-02T07:38:43.698Z,90.24
2022-11-02T07:41:12.078Z,90.24
2022-11-02T07:43:43.112Z,89.69
2022-11-02T07:46:24.108Z,88.80
2022-11-02T07:48:54.262Z,88.56
2022-11-02T07:51:22.786Z,88.59
2022-11-02T07:53:51.139Z,88.08
2022-11-02T07:56:19.546Z,87.53
2022-11-02T07:58:47.806Z,87.63
2022-11-02T08:01:16.173Z,86.59
2022-11-02T08:03:44.438Z,86.60
2022-11-02T08:06:14.140Z,86.43
2022-11-02T08:08:42.751Z,86.02
2022-11-02T08:11:11.310Z,85.38
2022-11-02T08:13:39.806Z,85.22
2022-11-02T08:16:08.242Z,84.60
2022-11-02T08:18:36.688Z,84.35
2022-11-02T08:21:05.025Z,84.07
2022-11-02T08:23:35.364Z,83.91
2022-11-02T08:26:03.594Z,83.40
2022-11-02T08:28:35.742Z,82.97
2022-11-02T08:31:04.022Z,82.08
2022-11-02T08:33:32.183Z,81.72
2022-11-02T08:36:03.014Z,81.08
2022-11-02T08:38:31.281Z,80.84
2022-11-02T08:41:00.857Z,80.59
2022-11-02T08:43:29.264Z,80.11
2022-11-02T08:46:16.396Z,79.88
2022-11-02T08:48:46.185Z,79.47
2022-11-02T08:51:14.333Z,78.88
2022-11-02T08:53:47.057Z,78.50
2022-11-02T08:56:18.602Z,78.05
2022-11-02T08:58:46.823Z,77.57
2022-11-02T09:01:15.370Z,77.22
2022-11-02T09:03:43.593Z,76.98
2022-11-02T09:06:12.244Z,76.35
2022-11-02T09:08:40.453Z,76.52
2022-11-02T09:11:09.376Z,75.90
2022-11-02T09:13:39.202Z,76.00
2022-11-02T09:16:07.834Z,75.70
2022-11-02T09:18:36.116Z,75.86
2022-11-02T09:21:04.894Z,75.47
2022-11-02T09:23:33.474Z,75.04
2022-11-02T09:26:01.794Z,74.74
2022-11-02T09:28:30.093Z,74.44
2022-11-02T09:30:59.831Z,74.55
2022-11-02T09:33:30.754Z,74.30
2022-11-02T09:36:02.976Z,73.98
2022-11-02T09:38:31.302Z,73.54
2022-11-02T09:41:03.535Z,73.21
2022-11-02T09:43:40.992Z,72.44
2022-11-02T09:46:13.452Z,72.21
2022-11-02T09:48:43.960Z,72.29
2022-11-02T09:51:13.917Z,72.11
2022-11-02T09:53:48.093Z,72.05
2022-11-02T09:56:19.928Z,72.04
2022-11-02T09:58:51.033Z,71.71
2022-11-02T10:01:26.275Z,71.17
2022-11-02T10:04:08.392Z,71.66
2022-11-02T10:06:38.933Z,71.57
2022-11-02T10:09:10.273Z,71.13
2022-11-02T10:11:44.492Z,71.12
2022-11-02T10:14:16.395Z,70.62
2022-11-02T10:16:50.847Z,70.56
2022-11-02T10:19:22.291Z,70.45
2022-11-02T10:21:54.463Z,70.48
2022-11-02T10:24:25.595Z,70.41
2022-11-02T10:26:57.473Z,70.02
2022-11-02T10:29:31.922Z,69.92
2022-11-02T10:32:02.786Z,69.67
2022-11-02T10:34:31.755Z,69.38
2022-11-02T10:37:07.538Z,68.87
2022-11-02T10:39:40.276Z,68.50
2022-11-02T10:42:17.252Z,68.53
2022-11-02T10:44:56.613Z,68.69
2022-11-02T10:47:28.762Z,68.25
2022-11-02T10:50:11.872Z,67.52
2022-11-02T10:52:43.360Z,67.47
2022-11-02T10:55:18.626Z,67.36
2022-11-02T10:57:47.076Z,67.03
2022-11-02T11:00:26.335Z,66.41
2022-11-02T11:03:05.856Z,65.64
2022-11-02T11:05:37.422Z,65.24
2022-11-02T11:08:06.799Z,64.41
2022-11-02T11:10:38.188Z,64.34
2022-11-02T11:15:57.066Z,63.74
2022-11-02T11:21:15.119Z,63.84
2022-11-02T11:23:43.410Z,63.88
2022-11-02T11:26:27.486Z,63.15
2022-11-02T11:28:56.926Z,63.30
2022-11-02T11:31:25.598Z,62.83
2022-11-02T11:33:55.330Z,62.97
2022-11-02T11:39:01.445Z,62.52
2022-11-02T11:41:30.358Z,62.17
2022-11-02T11:43:59.192Z,62.23
2022-11-02T11:46:41.548Z,62.24
2022-11-02T11:49:18.757Z,62.17
2022-11-02T11:51:50.614Z,62.12
2022-11-02T11:54:20.666Z,62.28
2022-11-02T11:56:49.454Z,61.92
2022-11-02T11:59:22.488Z,61.66
2022-11-02T12:01:52.725Z,61.09
2022-11-02T12:04:31.498Z,60.53
2022-11-02T12:07:09.498Z,59.90
2022-11-02T12:09:42.878Z,59.94
2022-11-02T12:12:17.386Z,58.35
2022-11-02T12:14:50.398Z,56.53
2022-11-02T12:17:29.466Z,55.94
2022-11-02T12:20:07.806Z,54.81
2022-11-02T12:22:42.623Z,54.54
2022-11-02T12:25:28.793Z,54.61
2022-11-02T12:28:03.250Z,54.84
2022-11-02T12:30:38.049Z,54.84
2022-11-02T12:33:09.417Z,54.59
2022-11-02T12:35:51.027Z,54.25
2022-11-02T12:38:30.076Z,54.31
2022-11-02T12:41:05.253Z,54.36
2022-11-02T12:43:39.508Z,53.90
2022-11-02T12:46:11.992Z,54.74
2022-11-02T12:48:43.851Z,54.87
2022-11-02T12:51:14.379Z,55.20
2022-11-02T12:53:45.848Z,56.47
2022-11-02T12:56:20.998Z,56.67
2022-11-02T12:58:49.678Z,56.83
2022-11-02T13:01:22.437Z,56.78
2022-11-02T13:03:53.373Z,56.69
2022-11-02T13:06:25.802Z,56.96
2022-11-02T13:08:56.590Z,57.63
2022-11-02T13:11:30.204Z,57.73
2022-11-02T13:14:00.031Z,58.11
2022-11-02T13:16:34.939Z,58.04
2022-11-02T13:19:04.099Z,57.81
2022-11-02T13:21:38.567Z,58.34
2022-11-02T13:24:14.757Z,58.54
2022-11-02T13:26:47.462Z,58.39
2022-11-02T13:29:19.192Z,58.18
2022-11-02T13:31:49.227Z,58.35
2022-11-02T13:34:19.789Z,58.97
2022-11-02T13:36:48.233Z,58.55
2022-11-02T13:39:19.040Z,58.32
2022-11-02T13:41:58.032Z,58.43
2022-11-02T13:44:38.102Z,58.38
2022-11-02T13:47:18.482Z,58.59
2022-11-02T13:49:50.931Z,58.22
2022-11-02T13:52:22.499Z,58.55
2022-11-02T13:54:52.759Z,58.98
2022-11-02T13:57:25.681Z,59.12
2022-11-02T13:59:55.364Z,59.49
2022-11-02T14:02:24.489Z,59.99
2022-11-02T14:04:52.872Z,60.37
2022-11-02T14:07:24.760Z,60.78
2022-11-02T14:09:57.744Z,61.26
2022-11-02T14:12:28.477Z,61.60
2022-11-02T14:15:07.419Z,62.03
2022-11-02T14:20:37.811Z,61.96
2022-11-02T14:23:21.104Z,62.21
2022-11-02T14:25:50.312Z,62.13
2022-11-02T14:28:30.329Z,62.21
2022-11-02T14:31:02.258Z,62.39
2022-11-02T14:33:39.005Z,62.44
2022-11-02T14:36:11.585Z,62.58
2022-11-02T14:38:57.718Z,62.98
2022-11-02T14:41:37.103Z,63.39
2022-11-02T14:44:15.801Z,63.77
2022-11-02T14:46:56.916Z,63.73
2022-11-02T14:49:27.321Z,63.73
2022-11-02T14:52:03.928Z,64.12
2022-11-02T14:54:34.540Z,64.68
2022-11-02T14:57:05.899Z,65.10
2022-11-02T14:59:37.012Z,65.00
2022-11-02T15:02:07.443Z,65.23
2022-11-02T15:04:36.502Z,65.87
2022-11-02T15:07:07.462Z,66.62
2022-11-02T15:09:46.539Z,66.82
2022-11-02T15:12:25.800Z,67.21
2022-11-02T15:14:56.350Z,67.72
2022-11-02T15:17:35.602Z,68.30
2022-11-02T15:20:18.819Z,68.75
2022-11-02T15:22:49.782Z,69.03
2022-11-02T15:25:21.491Z,69.35
2022-11-02T15:27:53.058Z,69.61
2022-11-02T15:30:26.983Z,69.50
2022-11-02T15:33:01.993Z,69.87
2022-11-02T15:35:32.842Z,70.02
2022-11-02T15:38:17.037Z,70.11
2022-11-02T15:40:49.324Z,70.55
2022-11-02T15:43:30.041Z,70.75
2022-11-02T15:46:05.124Z,71.09
2022-11-02T15:48:43.250Z,70.91
2022-11-02T15:51:17.601Z,71.18
2022-11-02T15:54:03.630Z,71.14
2022-11-02T15:56:41.812Z,71.39
2022-11-02T15:59:22.378Z,71.64
2022-11-02T16:02:04.141Z,71.82
2022-11-02T16:04:32.745Z,72.15
2022-11-02T16:07:06.052Z,72.16
2022-11-02T16:09:36.863Z,72.49
2022-11-02T16:12:12.303Z,72.81
2022-11-02T16:14:42.253Z,73.03
2022-11-02T16:17:20.321Z,73.06
2022-11-02T16:19:49.609Z,73.38
2022-11-02T16:22:24.379Z,73.39
2022-11-02T16:24:53.716Z,73.54
2022-11-02T16:27:22.551Z,73.87
2022-11-02T16:29:52.319Z,74.52
2022-11-02T16:32:20.480Z,74.47
2022-11-02T16:34:48.880Z,74.72
2022-11-02T16:37:19.550Z,75.08
2022-11-02T16:39:48.992Z,75.71
2022-11-02T16:42:19.299Z,75.77
2022-11-02T16:44:58.531Z,75.87
2022-11-02T16:47:36.339Z,76.53
2022-11-02T16:50:05.979Z,76.69
2022-11-02T16:52:35.187Z,76.67
2022-11-02T16:55:03.871Z,77.19
2022-11-02T16:57:33.271Z,77.28
2022-11-02T17:00:02.929Z,77.07
2022-11-02T17:02:36.324Z,77.65
2022-11-02T17:05:06.853Z,77.46
2022-11-02T17:07:37.294Z,77.78
2022-11-02T17:10:07.238Z,77.83
2022-11-02T17:12:36.559Z,77.76
2022-11-02T17:15:06.132Z,77.80
2022-11-02T17:17:40.662Z,77.73
2022-11-02T17:20:17.519Z,77.65
2022-11-02T17:22:53.577Z,78.17
2022-11-02T17:25:23.523Z,78.26
2022-11-02T17:27:52.289Z,78.42
2022-11-02T17:30:41.503Z,78.38
2022-11-02T17:33:12.045Z,78.64
2022-11-02T17:35:45.957Z,78.69
2022-11-02T17:38:14.478Z,79.15
2022-11-02T17:40:42.960Z,79.16
2022-11-02T17:43:10.278Z,79.28
2022-11-02T17:45:39.392Z,79.29
2022-11-02T17:48:10.065Z,79.02
2022-11-02T17:50:41.021Z,79.32
2022-11-02T17:53:12.515Z,79.52
2022-11-02T17:55:41.374Z,79.53
2022-11-02T17:58:09.883Z,79.47
2022-11-02T18:00:38.432Z,79.57
2022-11-02T18:03:11.485Z,79.67
2022-11-02T18:05:43.708Z,79.93
2022-11-02T18:08:16.251Z,80.02
2022-11-02T18:10:46.701Z,80.37
2022-11-02T18:13:15.952Z,80.40
2022-11-02T18:15:44.489Z,80.55
2022-11-02T18:18:13.090Z,80.31
2022-11-02T18:20:43.049Z,80.69
2022-11-02T18:23:15.361Z,80.92
2022-11-02T18:25:43.617Z,80.82
2022-11-02T18:28:11.899Z,80.98
2022-11-02T18:30:43.379Z,81.22
2022-11-02T18:33:13.887Z,81.08
2022-11-02T18:35:44.558Z,81.09
2022-11-02T18:38:13.439Z,81.27
2022-11-02T18:40:41.722Z,81.70
2022-11-02T18:43:10.222Z,81.66
2022-11-02T18:45:38.633Z,81.76
2022-11-02T18:48:07.404Z,81.87
2022-11-02T18:50:36.313Z,82.17
2022-11-02T18:53:06.342Z,82.32
2022-11-02T18:55:34.588Z,82.40
2022-11-02T18:58:03.345Z,82.37
2022-11-02T19:00:31.859Z,82.44
2022-11-02T19:03:00.243Z,82.49
2022-11-02T19:05:38.360Z,82.65
2022-11-02T19:08:19.561Z,82.56
2022-11-02T19:10:48.731Z,82.97
2022-11-02T19:13:17.052Z,82.79
2022-11-02T19:15:45.443Z,82.83
2022-11-02T19:18:13.700Z,82.97
2022-11-02T19:20:42.032Z,83.24
2022-11-02T19:23:11.800Z,83.29
2022-11-02T19:25:40.198Z,83.30
2022-11-02T19:28:08.772Z,83.48
2022-11-02T19:30:38.921Z,83.36
2022-11-02T19:33:07.714Z,83.38
2022-11-02T19:35:36.491Z,83.45
2022-11-02T19:38:04.838Z,83.71
2022-11-02T19:40:35.400Z,83.83
2022-11-02T19:43:04.087Z,83.72
2022-11-02T19:45:32.838Z,83.67
2022-11-02T19:48:03.436Z,83.92
2022-11-02T19:50:32.010Z,84.21
2022-11-02T19:53:01.218Z,83.94
2022-11-02T19:55:29.891Z,84.39
2022-11-02T19:57:59.472Z,84.46
2022-11-02T20:00:27.691Z,84.53
2022-11-02T20:02:56.477Z,84.65
2022-11-02T20:05:24.971Z,84.65
2022-11-02T20:07:53.210Z,84.71
2022-11-02T20:10:23.731Z,84.77
2022-11-02T20:12:51.930Z,84.85
2022-11-02T20:15:21.584Z,84.58
2022-11-02T20:18:13.316Z,84.70
2022-11-02T20:20:38.221Z,84.63
2022-11-02T20:23:06.363Z,84.66
2022-11-02T20:25:34.630Z,84.67
2022-11-02T20:28:03.601Z,84.39
2022-11-02T20:30:33.657Z,84.76
2022-11-02T20:33:01.960Z,84.78
2022-11-02T20:35:30.450Z,84.80
2022-11-02T20:37:59.051Z,84.92
2022-11-02T20:40:28.671Z,84.94
2022-11-02T20:42:58.850Z,85.05
2022-11-02T20:45:28.786Z,85.21
2022-11-02T20:48:02.795Z,85.04
2022-11-02T20:50:31.241Z,84.67
2022-11-02T20:52:59.446Z,84.85
2022-11-02T20:55:28.854Z,84.57
2022-11-02T20:57:57.771Z,84.66
2022-11-02T21:00:26.873Z,84.30
2022-11-02T21:02:55.078Z,84.33
2022-11-02T21:05:24.684Z,84.31
2022-11-02T21:07:53.824Z,84.16
2022-11-02T21:10:22.053Z,84.31
2022-11-02T21:13:00.173Z,84.68
2022-11-02T21:15:29.369Z,85.22
2022-11-02T21:17:57.582Z,85.07
2022-11-02T21:20:34.271Z,85.05
2022-11-02T21:23:03.786Z,85.44
2022-11-02T21:25:33.286Z,84.92
2022-11-02T21:28:01.922Z,85.54
2022-11-02T21:30:32.204Z,85.60
2022-11-02T21:33:01.398Z,85.83
2022-11-02T21:35:30.934Z,85.55
2022-11-02T21:38:01.339Z,85.71
2022-11-02T21:40:32.314Z,85.91
2022-11-02T21:43:00.906Z,86.00
2022-11-02T21:45:32.238Z,85.96
2022-11-02T21:48:05.516Z,85.92
2022-11-02T21:50:35.086Z,86.19
2022-11-02T21:53:03.571Z,86.25
2022-11-02T21:55:32.087Z,86.22
2022-11-02T21:58:00.444Z,85.87
2022-11-02T22:00:48.978Z,85.37
2022-11-02T22:03:16.318Z,85.17
2022-11-02T22:05:59.064Z,84.81
2022-11-02T22:08:37.463Z,84.81
2022-11-02T22:11:05.827Z,84.79
2022-11-02T22:13:34.106Z,85.01
2022-11-02T22:16:10.037Z,85.40
2022-11-02T22:18:38.286Z,85.05
2022-11-02T22:21:08.336Z,84.39
2022-11-02T22:23:36.729Z,84.76
2022-11-02T22:26:07.073Z,84.27
2022-11-02T22:28:37.826Z,84.15
2022-11-02T22:31:06.623Z,84.28
2022-11-02T22:33:34.903Z,84.76
2022-11-02T22:36:04.827Z,85.24
2022-11-02T22:38:44.537Z,84.55
2022-11-02T22:41:12.972Z,84.82
2022-11-02T22:43:41.225Z,84.50
2022-11-02T22:46:10.063Z,84.86
2022-11-02T22:48:38.412Z,84.67
2022-11-02T22:51:07.694Z,84.85
2022-11-02T22:53:37.405Z,84.77
2022-11-02T22:56:09.034Z,85.05
2022-11-02T22:58:38.165Z,84.74
2022-11-02T23:01:06.952Z,85.14
2022-11-02T23:03:35.857Z,84.97
2022-11-02T23:06:06.600Z,85.36
2022-11-02T23:08:36.548Z,85.31
2022-11-02T23:11:17.335Z,85.04
2022-11-02T23:13:46.756Z,84.47
2022-11-02T23:16:26.222Z,84.40
2022-11-02T23:19:07.087Z,84.85
2022-11-02T23:21:35.615Z,85.07
2022-11-02T23:37:43.633Z,84.28
2022-11-02T23:40:31.237Z,84.05
2022-11-02T23:43:00.984Z,84.26
2022-11-02T23:45:29.325Z,84.44
2022-11-02T23:48:01.479Z,83.30
2022-11-02T23:50:41.857Z,83.47
2022-11-02T23:53:22.075Z,83.19
2022-11-02T23:56:00.380Z,83.78
2022-11-02T23:58:30.050Z,82.86
